createdAt,value
2018-09-05T00:02:10.000Z,2.00
2018-09-05T00:05:34.630Z,2.50
2018-09-05T00:08:03.305Z,1.90
2018-09-05T00:10:31.944Z,2.30
2018-09-05T00:13:00.617Z,2.23
2018-09-05T00:15:29.295Z,2.20
2018-09-05T00:17:57.946Z,2.43
2018-09-05T00:20:26.581Z,1.90
2018-09-05T00:22:55.213Z,2.23
2018-09-05T00:25:23.908Z,2.30
2018-09-05T00:27:52.532Z,2.40
2018-09-05T00:30:21.305Z,2.13
2018-09-05T00:32:49.991Z,2.23
2018-09-05T00:35:18.648Z,2.00
2018-09-05T00:37:47.289Z,2.50
2018-09-05T00:40:15.928Z,2.17
2018-09-05T00:42:44.627Z,2.10
2018-09-05T00:45:13.241Z,2.43
2018-09-05T00:47:41.844Z,1.97
2018-09-05T00:50:10.494Z,2.10
2018-09-05T00:52:39.127Z,2.03
2018-09-05T00:55:07.761Z,2.00
2018-09-05T00:57:36.375Z,2.30
2018-09-05T01:00:05.633Z,2.40
2018-09-05T01:02:34.292Z,2.50
2018-09-05T01:05:02.990Z,2.10
2018-09-05T01:07:31.675Z,2.00
2018-09-05T01:10:00.350Z,2.03
2018-09-05T01:12:28.977Z,2.80
2018-09-05T01:14:57.769Z,2.27
2018-09-05T01:17:26.408Z,2.50
2018-09-05T01:19:55.038Z,2.20
2018-09-05T01:22:23.647Z,2.97
2018-09-05T01:24:52.260Z,2.73
2018-09-05T01:27:20.917Z,2.63
2018-09-05T01:29:49.517Z,2.73
2018-09-05T01:32:18.145Z,2.50
2018-09-05T01:34:46.754Z,2.87
2018-09-05T01:37:15.357Z,2.40
2018-09-05T01:39:43.971Z,2.63
2018-09-05T01:42:12.585Z,2.77
2018-09-05T01:44:41.244Z,2.47
2018-09-05T01:47:09.925Z,2.47
2018-09-05T01:49:38.548Z,2.43
2018-09-05T01:52:07.217Z,2.40
2018-09-05T01:54:35.832Z,2.87
2018-09-05T01:57:04.455Z,2.30
2018-09-05T01:59:33.076Z,2.40
2018-09-05T02:02:01.709Z,2.53
2018-09-05T02:04:30.329Z,2.70
2018-09-05T02:06:59.023Z,2.67
2018-09-05T02:09:27.679Z,2.70
2018-09-05T02:11:56.308Z,2.40
2018-09-05T02:14:24.972Z,2.67
2018-09-05T02:16:53.585Z,2.87
2018-09-05T02:19:22.228Z,2.67
2018-09-05T02:21:50.881Z,2.47
2018-09-05T02:24:19.515Z,2.53
2018-09-05T02:26:48.144Z,2.40
2018-09-05T02:29:16.756Z,2.57
2018-09-05T02:31:45.408Z,2.67
2018-09-05T02:34:14.075Z,2.60
2018-09-05T02:36:42.673Z,2.50
2018-09-05T02:39:11.978Z,2.50
2018-09-05T02:41:40.777Z,3.10
2018-09-05T02:44:14.840Z,2.70
2018-09-05T02:46:43.511Z,2.20
2018-09-05T02:49:12.125Z,2.50
2018-09-05T02:51:40.761Z,2.23
2018-09-05T02:54:09.401Z,2.60
2018-09-05T02:56:38.016Z,2.70
2018-09-05T02:59:06.642Z,2.40
2018-09-05T03:01:35.427Z,2.83
2018-09-05T03:04:04.096Z,2.93
2018-09-05T03:06:32.735Z,3.17
2018-09-05T03:09:01.400Z,2.60
2018-09-05T03:11:30.057Z,2.83
2018-09-05T03:13:58.670Z,2.40
2018-09-05T03:16:27.341Z,2.73
2018-09-05T03:18:55.959Z,3.47
2018-09-05T03:21:24.661Z,2.63
2018-09-05T03:23:53.329Z,2.60
2018-09-05T03:26:21.933Z,2.60
2018-09-05T03:28:50.585Z,3.10
2018-09-05T03:31:19.180Z,2.97
2018-09-05T03:33:47.859Z,2.60
2018-09-05T03:36:16.472Z,3.00
2018-09-05T03:38:45.138Z,2.83
2018-09-05T03:41:13.762Z,2.80
2018-09-05T03:43:42.424Z,3.17
2018-09-05T03:46:11.108Z,3.00
2018-09-05T03:48:39.760Z,2.97
2018-09-05T03:51:08.362Z,3.00
2018-09-05T03:53:36.985Z,3.03
2018-09-05T03:56:05.716Z,2.73
2018-09-05T03:58:34.345Z,3.00
2018-09-05T04:01:02.973Z,3.40
2018-09-05T04:03:31.592Z,3.10
2018-09-05T04:06:00.205Z,2.90
2018-09-05T04:08:28.817Z,3.17
2018-09-05T04:10:57.449Z,3.43
2018-09-05T04:13:26.064Z,3.10
2018-09-05T04:15:54.713Z,3.00
2018-09-05T04:18:23.364Z,3.57
2018-09-05T04:20:51.992Z,3.23
2018-09-05T04:23:20.645Z,3.20
2018-09-05T04:25:49.266Z,3.17
2018-09-05T04:28:17.876Z,3.23
2018-09-05T04:30:46.536Z,3.43
2018-09-05T04:33:15.163Z,3.37
2018-09-05T04:35:43.816Z,3.20
2018-09-05T04:38:12.433Z,3.57
2018-09-05T04:40:41.027Z,4.90
2018-09-05T04:43:09.624Z,3.30
2018-09-05T04:45:38.250Z,2.90
2018-09-05T04:48:06.921Z,3.00
2018-09-05T04:50:35.652Z,3.23
2018-09-05T04:53:04.258Z,3.17
2018-09-05T04:55:32.893Z,2.90
2018-09-05T04:58:01.545Z,3.27
2018-09-05T05:00:30.137Z,3.60
2018-09-05T05:02:58.786Z,3.47
2018-09-05T05:05:27.437Z,3.13
2018-09-05T05:07:56.041Z,4.93
2018-09-05T05:10:24.675Z,4.10
2018-09-05T05:12:53.280Z,3.10
2018-09-05T05:15:21.884Z,3.87
2018-09-05T05:17:50.484Z,3.40
2018-09-05T05:20:19.121Z,3.40
2018-09-05T05:22:47.716Z,3.10
2018-09-05T05:25:16.456Z,3.23
2018-09-05T05:27:45.074Z,3.20
2018-09-05T05:30:13.680Z,3.30
2018-09-05T05:32:42.385Z,3.43
2018-09-05T05:35:10.972Z,3.63
2018-09-05T05:37:39.584Z,3.40
2018-09-05T05:40:08.216Z,3.33
2018-09-05T05:42:37.572Z,3.40
2018-09-05T05:45:06.280Z,3.60
2018-09-05T05:47:35.250Z,3.00
2018-09-05T05:50:04.243Z,3.87
2018-09-05T05:52:32.976Z,3.50
2018-09-05T05:55:02.261Z,3.43
2018-09-05T05:57:30.943Z,3.20
2018-09-05T05:59:59.546Z,3.67
2018-09-05T06:02:28.167Z,4.17
2018-09-05T06:04:57.150Z,3.50
2018-09-05T06:07:25.757Z,3.50
2018-09-05T06:09:54.369Z,3.30
2018-09-05T06:12:22.968Z,3.13
2018-09-05T06:14:51.716Z,3.10
2018-09-05T06:17:20.509Z,3.50
2018-09-05T06:19:49.176Z,3.60
2018-09-05T06:22:17.908Z,2.90
2018-09-05T06:24:46.623Z,3.00
2018-09-05T06:27:15.226Z,3.10
2018-09-05T06:29:43.875Z,3.20
2018-09-05T06:32:12.472Z,3.10
2018-09-05T06:34:41.100Z,3.33
2018-09-05T06:37:09.752Z,3.73
2018-09-05T06:39:38.373Z,3.07
2018-09-05T06:42:06.991Z,3.50
2018-09-05T06:44:35.592Z,3.40
2018-09-05T06:47:04.276Z,3.63
2018-09-05T06:49:32.908Z,3.50
2018-09-05T06:52:01.589Z,3.53
2018-09-05T06:54:30.419Z,3.30
2018-09-05T06:56:59.127Z,3.17
2018-09-05T06:59:28.252Z,3.10
2018-09-05T07:01:57.108Z,3.63
2018-09-05T07:04:25.692Z,3.27
2018-09-05T07:06:54.335Z,3.67
2018-09-05T07:09:22.924Z,3.20
2018-09-05T07:11:51.515Z,3.47
2018-09-05T07:14:20.122Z,2.90
2018-09-05T07:16:48.741Z,2.90
2018-09-05T07:19:17.468Z,3.03
2018-09-05T07:21:46.180Z,3.37
2018-09-05T07:24:14.773Z,3.27
2018-09-05T07:26:48.358Z,3.30
2018-09-05T07:29:17.100Z,2.70
2018-09-05T07:31:45.718Z,2.87
2018-09-05T07:34:14.336Z,3.07
2018-09-05T07:36:43.705Z,3.13
2018-09-05T07:39:12.382Z,3.33
2018-09-05T07:41:41.000Z,2.63
2018-09-05T07:44:09.629Z,3.23
2018-09-05T07:46:38.259Z,2.77
2018-09-05T07:49:07.528Z,2.70
2018-09-05T07:51:37.513Z,2.80
2018-09-05T07:54:06.509Z,3.33
2018-09-05T07:56:35.366Z,3.07
2018-09-05T07:59:04.444Z,3.30
2018-09-05T08:01:33.133Z,2.70
2018-09-05T08:04:01.882Z,2.70
2018-09-05T08:06:30.557Z,3.13
2018-09-05T08:08:59.199Z,2.73
2018-09-05T08:11:27.866Z,3.27
2018-09-05T08:13:56.483Z,2.93
2018-09-05T08:16:25.116Z,2.87
2018-09-05T08:18:53.740Z,2.83
2018-09-05T08:21:22.369Z,3.23
2018-09-05T08:23:51.025Z,2.30
2018-09-05T08:26:19.680Z,2.50
2018-09-05T08:28:48.380Z,2.80
2018-09-05T08:31:17.041Z,2.37
2018-09-05T08:33:45.731Z,2.40
2018-09-05T08:36:14.604Z,2.60
2018-09-05T08:38:43.091Z,2.90
2018-09-05T08:41:11.942Z,2.47
2018-09-05T08:43:41.275Z,2.47
2018-09-05T08:46:10.114Z,2.33
2018-09-05T08:48:38.752Z,2.57
2018-09-05T08:51:07.386Z,2.40
2018-09-05T08:53:35.997Z,2.50
2018-09-05T08:56:04.698Z,2.07
2018-09-05T08:58:33.372Z,2.30
2018-09-05T09:01:02.009Z,2.07
2018-09-05T09:03:30.628Z,2.20
2018-09-05T09:05:59.285Z,1.83
2018-09-05T09:08:27.916Z,2.50
2018-09-05T09:10:56.546Z,2.03
2018-09-05T09:13:25.189Z,2.43
2018-09-05T09:15:53.820Z,1.97
2018-09-05T09:18:23.144Z,1.90
2018-09-05T09:20:51.792Z,2.00
2018-09-05T09:23:20.465Z,2.00
2018-09-05T09:25:49.142Z,2.00
2018-09-05T09:28:17.787Z,2.67
2018-09-05T09:30:46.420Z,1.83
2018-09-05T09:33:15.059Z,1.90
2018-09-05T09:35:43.715Z,2.03
2018-09-05T09:38:12.349Z,2.07
2018-09-05T09:40:40.973Z,1.93
2018-09-05T09:43:09.629Z,1.80
2018-09-05T09:45:38.248Z,2.23
2018-09-05T09:48:07.041Z,1.90
2018-09-05T09:50:35.684Z,1.90
2018-09-05T09:53:04.313Z,2.03
2018-09-05T09:55:32.937Z,2.17
2018-09-05T09:58:01.624Z,2.40
2018-09-05T10:00:35.812Z,2.23
2018-09-05T10:03:09.659Z,2.50
2018-09-05T10:05:43.896Z,2.93
2018-09-05T10:08:18.363Z,2.50
2018-09-05T10:10:52.265Z,2.33
2018-09-05T10:13:26.324Z,2.33
2018-09-05T10:16:00.387Z,2.50
2018-09-05T10:18:31.892Z,2.67
2018-09-05T10:21:00.534Z,2.45
2018-09-05T10:23:29.274Z,2.30
2018-09-05T10:25:57.881Z,2.70
2018-09-05T10:28:26.475Z,2.35
2018-09-05T10:30:55.147Z,2.62
2018-09-05T10:33:23.788Z,2.40
2018-09-05T10:35:52.400Z,2.92
2018-09-05T10:38:21.035Z,2.90
2018-09-05T10:40:49.658Z,2.67
2018-09-05T10:43:18.281Z,2.98
2018-09-05T10:45:47.002Z,2.50
2018-09-05T10:48:15.656Z,2.10
2018-09-05T10:50:44.296Z,2.55
2018-09-05T10:53:12.912Z,2.75
2018-09-05T10:55:41.545Z,2.10
2018-09-05T10:58:10.198Z,2.58
2018-09-05T11:00:38.860Z,2.37
2018-09-05T11:03:07.811Z,2.60
2018-09-05T11:05:36.485Z,2.70
2018-09-05T11:08:05.400Z,2.67
2018-09-05T11:10:34.023Z,2.60
2018-09-05T11:13:02.677Z,2.40
2018-09-05T11:15:31.301Z,2.45
2018-09-05T11:17:59.977Z,2.65
2018-09-05T11:20:28.725Z,2.50
2018-09-05T11:22:57.417Z,2.35
2018-09-05T11:25:26.042Z,2.47
2018-09-05T11:27:54.663Z,2.55
2018-09-05T11:30:23.285Z,2.27
2018-09-05T11:32:51.988Z,2.40
2018-09-05T11:35:20.623Z,2.33
2018-09-05T11:37:49.352Z,2.37
2018-09-05T11:40:18.127Z,2.30
2018-09-05T11:42:46.757Z,2.30
2018-09-05T11:45:15.404Z,2.15
2018-09-05T11:47:44.008Z,2.10
2018-09-05T11:50:12.655Z,2.50
2018-09-05T11:52:41.294Z,2.60
2018-09-05T11:55:09.923Z,2.72
2018-09-05T11:57:38.729Z,2.80
2018-09-05T12:00:07.561Z,2.92
2018-09-05T12:02:36.230Z,2.65
2018-09-05T12:05:04.925Z,2.92
2018-09-05T12:07:33.566Z,2.83
2018-09-05T12:10:02.207Z,2.80
2018-09-05T12:12:30.891Z,2.95
2018-09-05T12:14:59.513Z,2.70
2018-09-05T12:17:28.818Z,2.72
2018-09-05T12:19:57.433Z,2.58
2018-09-05T12:22:26.052Z,2.52
2018-09-05T12:24:54.672Z,2.85
2018-09-05T12:27:23.300Z,2.50
2018-09-05T12:29:51.911Z,3.10
2018-09-05T12:32:20.517Z,3.37
2018-09-05T12:34:49.188Z,2.85
2018-09-05T12:37:17.791Z,2.83
2018-09-05T12:39:46.455Z,3.17
2018-09-05T12:42:15.088Z,2.95
2018-09-05T12:44:43.769Z,3.40
2018-09-05T12:47:12.381Z,3.20
2018-09-05T12:49:40.993Z,2.80
2018-09-05T12:52:09.618Z,2.70
2018-09-05T12:54:38.405Z,2.62
2018-09-05T12:57:07.233Z,2.55
2018-09-05T12:59:35.857Z,2.85
2018-09-05T13:02:04.505Z,2.67
2018-09-05T13:04:33.152Z,2.95
2018-09-05T13:07:01.895Z,2.98
2018-09-05T13:09:30.614Z,2.80
2018-09-05T13:11:59.457Z,2.75
2018-09-05T13:14:28.117Z,2.80
2018-09-05T13:16:56.772Z,2.47
2018-09-05T13:19:25.382Z,2.45
2018-09-05T13:21:54.008Z,2.60
2018-09-05T13:24:22.796Z,2.55
2018-09-05T13:26:51.391Z,2.50
2018-09-05T13:29:20.013Z,2.52
2018-09-05T13:31:48.677Z,2.20
2018-09-05T13:34:17.290Z,2.05
2018-09-05T13:36:45.943Z,2.05
2018-09-05T13:39:14.564Z,2.17
2018-09-05T13:41:43.179Z,2.30
2018-09-05T13:44:11.913Z,2.22
2018-09-05T13:46:40.554Z,2.17
2018-09-05T13:49:09.171Z,2.50
2018-09-05T13:51:37.903Z,2.12
2018-09-05T13:54:06.686Z,2.40
2018-09-05T13:56:35.309Z,2.05
2018-09-05T13:59:03.925Z,2.08
2018-09-05T14:01:32.576Z,2.73
2018-09-05T14:04:01.181Z,2.57
2018-09-05T14:06:29.812Z,2.17
2018-09-05T14:08:58.430Z,2.03
2018-09-05T14:11:27.058Z,2.53
2018-09-05T14:13:55.721Z,2.10
2018-09-05T14:16:24.334Z,3.17
2018-09-05T14:18:52.960Z,3.30
2018-09-05T14:21:21.564Z,2.90
2018-09-05T14:23:50.345Z,2.63
2018-09-05T14:26:18.963Z,2.37
2018-09-05T14:28:47.648Z,2.27
2018-09-05T14:31:16.268Z,2.20
2018-09-05T14:33:45.053Z,2.08
2018-09-05T14:36:13.693Z,1.93
2018-09-05T14:38:42.744Z,2.00
2018-09-05T14:41:11.363Z,2.10
2018-09-05T14:43:39.982Z,2.03
2018-09-05T14:46:08.925Z,2.00
2018-09-05T14:48:37.622Z,2.20
2018-09-05T14:51:06.346Z,1.90
2018-09-05T14:53:34.976Z,2.20
2018-09-05T14:56:03.613Z,2.30
2018-09-05T14:58:32.233Z,2.00
2018-09-05T15:01:00.847Z,2.20
2018-09-05T15:03:29.473Z,2.30
2018-09-05T15:05:58.085Z,2.27
2018-09-05T15:08:26.699Z,2.23
2018-09-05T15:10:55.402Z,2.40
2018-09-05T15:13:24.029Z,2.73
2018-09-05T15:15:52.723Z,2.40
2018-09-05T15:18:21.456Z,2.17
2018-09-05T15:20:50.116Z,2.30
2018-09-05T15:23:18.806Z,2.40
2018-09-05T15:25:47.492Z,2.00
2018-09-05T15:28:16.157Z,2.37
2018-09-05T15:30:44.804Z,2.20
2018-09-05T15:33:13.449Z,2.20
2018-09-05T15:35:42.080Z,2.33
2018-09-05T15:38:10.721Z,2.50
2018-09-05T15:40:39.513Z,2.20
2018-09-05T15:43:08.164Z,2.10
2018-09-05T15:45:36.832Z,2.07
2018-09-05T15:48:05.688Z,1.87
2018-09-05T15:50:34.345Z,2.13
2018-09-05T15:53:02.997Z,2.10
2018-09-05T15:55:31.637Z,2.00
2018-09-05T15:58:00.398Z,1.77
2018-09-05T16:00:29.071Z,1.90
2018-09-05T16:02:57.715Z,2.00
2018-09-05T16:05:26.940Z,2.03
2018-09-05T16:07:55.646Z,1.87
2018-09-05T16:10:24.284Z,1.90
2018-09-05T16:12:52.901Z,1.97
2018-09-05T16:15:21.611Z,2.00
2018-09-05T16:17:50.317Z,1.67
2018-09-05T16:20:18.983Z,2.73
2018-09-05T16:22:47.640Z,1.97
2018-09-05T16:25:16.276Z,2.53
2018-09-05T16:27:44.957Z,2.30
2018-09-05T16:30:13.618Z,2.33
2018-09-05T16:32:42.240Z,2.53
2018-09-05T16:35:10.887Z,2.50
2018-09-05T16:37:39.525Z,3.07
2018-09-05T16:40:08.210Z,2.40
2018-09-05T16:42:36.885Z,2.70
2018-09-05T16:45:05.802Z,2.50
2018-09-05T16:47:34.451Z,2.50
2018-09-05T16:50:03.191Z,2.80
2018-09-05T16:52:31.832Z,3.10
2018-09-05T16:55:00.576Z,3.00
2018-09-05T16:57:29.274Z,2.80
2018-09-05T16:59:57.933Z,2.70
2018-09-05T17:02:26.653Z,3.30
2018-09-05T17:04:55.308Z,3.23
2018-09-05T17:07:23.979Z,3.50
2018-09-05T17:09:52.687Z,2.53
2018-09-05T17:12:21.324Z,2.90
2018-09-05T17:14:49.972Z,3.13
2018-09-05T17:17:18.615Z,3.07
2018-09-05T17:19:47.284Z,3.50
2018-09-05T17:22:15.929Z,3.83
2018-09-05T17:24:44.603Z,3.30
2018-09-05T17:27:13.511Z,3.00
2018-09-05T17:29:42.196Z,3.40
2018-09-05T17:32:10.845Z,3.17
2018-09-05T17:34:39.620Z,3.17
2018-09-05T17:37:08.381Z,3.60
2018-09-05T17:39:37.025Z,3.43
2018-09-05T17:42:05.701Z,3.57
2018-09-05T17:44:34.351Z,3.17
2018-09-05T17:47:02.975Z,3.63
2018-09-05T17:49:31.628Z,3.30
2018-09-05T17:52:00.285Z,3.30
2018-09-05T17:54:28.916Z,3.50
2018-09-05T17:56:57.640Z,3.77
2018-09-05T17:59:26.261Z,4.03
2018-09-05T18:01:55.016Z,3.67
2018-09-05T18:04:23.676Z,4.00
2018-09-05T18:06:52.405Z,3.23
2018-09-05T18:09:21.088Z,3.80
2018-09-05T18:11:49.856Z,4.07
2018-09-05T18:14:18.600Z,4.27
2018-09-05T18:16:47.356Z,3.70
2018-09-05T18:19:15.976Z,4.07
2018-09-05T18:21:44.606Z,3.90
2018-09-05T18:24:13.266Z,4.43
2018-09-05T18:26:41.892Z,3.60
2018-09-05T18:29:10.825Z,4.50
2018-09-05T18:31:39.506Z,4.50
2018-09-05T18:34:08.124Z,4.20
2018-09-05T18:36:36.747Z,4.63
2018-09-05T18:39:07.247Z,4.20
2018-09-05T18:41:35.944Z,5.37
2018-09-05T18:44:04.585Z,4.83
2018-09-05T18:46:33.312Z,4.83
2018-09-05T18:49:01.990Z,5.17
2018-09-05T18:51:30.704Z,4.87
2018-09-05T18:54:06.154Z,4.83
2018-09-05T18:59:22.784Z,5.00
2018-09-05T19:01:53.572Z,5.37
2018-09-05T19:04:22.925Z,5.23
2018-09-05T19:06:51.939Z,5.47
2018-09-05T19:11:56.977Z,5.50
2018-09-05T19:14:25.606Z,5.70
2018-09-05T19:16:54.280Z,5.23
2018-09-05T19:19:23.056Z,5.57
2018-09-05T19:21:51.707Z,4.90
2018-09-05T19:24:21.365Z,5.13
2018-09-05T19:26:50.055Z,5.23
2018-09-05T19:29:18.684Z,6.03
2018-09-05T19:31:50.447Z,5.53
2018-09-05T19:34:19.806Z,5.77
2018-09-05T19:36:49.990Z,5.50
2018-09-05T19:39:18.820Z,5.20
2018-09-05T19:41:52.675Z,5.33
2018-09-05T19:44:24.214Z,5.30
2018-09-05T19:46:55.612Z,4.90
2018-09-05T19:49:26.788Z,6.10
2018-09-05T19:51:56.086Z,6.70
2018-09-05T19:54:24.926Z,7.30
2018-09-05T19:56:56.488Z,6.00
2018-09-05T19:59:34.093Z,6.07
2018-09-05T20:02:19.028Z,6.10
2018-09-05T20:04:47.918Z,5.37
2018-09-05T20:07:18.527Z,5.50
2018-09-05T20:09:47.442Z,6.03
2018-09-05T20:12:16.101Z,5.87
2018-09-05T20:14:44.728Z,5.53
2018-09-05T20:17:13.383Z,5.47
2018-09-05T20:19:42.081Z,5.17
2018-09-05T20:22:17.573Z,5.77
2018-09-05T20:24:51.769Z,4.93
2018-09-05T20:27:28.434Z,5.00
2018-09-05T20:30:06.790Z,5.13
2018-09-05T20:32:48.882Z,5.70
2018-09-05T20:35:23.456Z,5.93
2018-09-05T20:37:53.498Z,5.13
2018-09-05T20:40:22.142Z,5.37
2018-09-05T20:42:50.788Z,6.03
2018-09-05T20:45:19.430Z,6.07
2018-09-05T20:47:48.104Z,6.30
2018-09-05T20:50:16.723Z,5.60
2018-09-05T20:52:45.367Z,6.30
2018-09-05T20:55:20.440Z,6.27
2018-09-05T20:57:50.728Z,6.43
2018-09-05T21:00:23.238Z,6.17
2018-09-05T21:03:01.046Z,6.20
2018-09-05T21:05:29.787Z,5.73
2018-09-05T21:07:59.749Z,5.80
2018-09-05T21:10:39.887Z,6.60
2018-09-05T21:13:17.807Z,6.13
2018-09-05T21:15:50.618Z,6.53
2018-09-05T21:18:24.990Z,6.43
2018-09-05T21:21:03.063Z,7.10
2018-09-05T21:26:17.184Z,6.53
2018-09-05T21:28:49.667Z,5.80
2018-09-05T21:31:18.379Z,5.90
2018-09-05T21:33:47.005Z,6.10
2018-09-05T21:36:15.936Z,5.67
2018-09-05T21:38:59.346Z,6.10
2018-09-05T21:41:29.559Z,6.40
2018-09-05T21:44:03.905Z,5.90
2018-09-05T21:46:32.700Z,5.83
2018-09-05T21:49:01.357Z,6.13
2018-09-05T21:51:29.984Z,6.13
2018-09-05T21:53:58.700Z,6.83
2018-09-05T21:56:27.375Z,6.43
2018-09-05T21:58:56.036Z,7.20
2018-09-05T22:01:24.680Z,6.10
2018-09-05T22:03:53.325Z,6.80
2018-09-05T22:06:21.975Z,6.57
2018-09-05T22:08:50.609Z,6.80
2018-09-05T22:11:24.755Z,6.90
2018-09-05T22:13:54.096Z,6.43
2018-09-05T22:16:22.712Z,6.90
2018-09-05T22:18:51.548Z,7.20
2018-09-05T22:21:20.188Z,6.50
2018-09-05T22:23:48.892Z,6.63
2018-09-05T22:26:17.601Z,6.97
2018-09-05T22:28:46.328Z,7.10
2018-09-05T22:31:15.000Z,7.27
2018-09-05T22:33:43.675Z,6.50
2018-09-05T22:36:12.360Z,6.93
2018-09-05T22:38:41.059Z,6.43
2018-09-05T22:41:09.684Z,6.50
2018-09-05T22:43:49.105Z,6.83
2018-09-05T22:46:28.672Z,6.87
2018-09-05T22:49:08.073Z,6.50
2018-09-05T22:52:20.089Z,7.17
2018-09-05T22:55:07.605Z,6.80
2018-09-05T22:57:59.300Z,6.80
2018-09-05T23:00:45.480Z,6.77
2018-09-05T23:05:30.418Z,6.70
2018-09-05T23:08:14.138Z,7.20
2018-09-05T23:10:53.633Z,6.87
2018-09-05T23:14:33.039Z,7.30
2018-09-05T23:19:17.410Z,7.47
2018-09-05T23:21:46.045Z,6.70
2018-09-05T23:24:14.696Z,7.17
2018-09-05T23:26:43.413Z,7.10
2018-09-05T23:29:12.081Z,7.70
2018-09-05T23:31:40.728Z,7.13
2018-09-05T23:34:09.406Z,7.13
2018-09-05T23:36:38.117Z,7.30
2018-09-05T23:39:08.292Z,8.20
2018-09-05T23:41:36.940Z,8.27
2018-09-05T23:44:05.663Z,7.67
2018-09-05T23:46:34.301Z,7.40
2018-09-05T23:49:03.002Z,7.13
2018-09-05T23:51:31.677Z,7.77
2018-09-05T23:54:00.417Z,7.80
2018-09-05T23:56:29.197Z,7.63
2018-09-05T23:58:57.963Z,7.93
